createdAt,value
2019-05-25T00:02:13.833Z,89.94
2019-05-25T00:04:42.472Z,89.87
2019-05-25T00:07:11.137Z,89.86
2019-05-25T00:09:39.770Z,89.90
2019-05-25T00:12:08.311Z,89.84
2019-05-25T00:14:37.431Z,89.96
2019-05-25T00:17:06.046Z,90.03
2019-05-25T00:19:34.631Z,90.13
2019-05-25T00:22:03.167Z,90.29
2019-05-25T00:24:31.757Z,90.36
2019-05-25T00:27:00.378Z,90.51
2019-05-25T00:29:29.066Z,90.55
2019-05-25T00:31:57.611Z,90.50
2019-05-25T00:34:28.056Z,90.60
2019-05-25T00:36:56.557Z,90.75
2019-05-25T00:39:25.173Z,90.80
2019-05-25T00:41:53.783Z,90.76
2019-05-25T00:44:22.324Z,90.63
2019-05-25T00:46:50.986Z,90.54
2019-05-25T00:49:19.600Z,90.50
2019-05-25T00:51:48.219Z,90.45
2019-05-25T00:54:27.429Z,90.41
2019-05-25T00:56:47.177Z,90.31
2019-05-25T00:59:15.784Z,90.27
2019-05-25T01:01:44.400Z,90.19
2019-05-25T01:04:15.680Z,90.18
2019-05-25T01:06:44.160Z,90.14
2019-05-25T01:09:12.778Z,90.05
2019-05-25T01:11:41.284Z,90.05
2019-05-25T01:14:11.328Z,90.09
2019-05-25T01:16:39.890Z,90.25
2019-05-25T01:19:08.455Z,90.26
2019-05-25T01:21:36.991Z,90.26
2019-05-25T01:24:05.888Z,90.26
2019-05-25T01:26:34.651Z,90.44
2019-05-25T01:29:03.452Z,90.46
2019-05-25T01:31:31.991Z,90.60
2019-05-25T01:34:00.564Z,90.57
2019-05-25T01:36:29.112Z,90.55
2019-05-25T01:38:57.675Z,90.42
2019-05-25T01:41:26.206Z,90.35
2019-05-25T01:43:54.756Z,90.36
2019-05-25T01:46:23.303Z,90.31
2019-05-25T01:48:51.943Z,90.39
2019-05-25T01:51:20.700Z,90.53
2019-05-25T01:53:49.362Z,90.59
2019-05-25T01:56:18.001Z,90.61
2019-05-25T01:58:46.641Z,90.54
2019-05-25T02:01:15.431Z,90.56
2019-05-25T02:03:44.090Z,90.52
2019-05-25T02:06:12.671Z,90.52
2019-05-25T02:08:41.173Z,90.49
2019-05-25T02:11:12.719Z,90.48
2019-05-25T02:13:41.366Z,90.46
2019-05-25T02:16:11.187Z,90.46
2019-05-25T02:18:39.734Z,90.51
2019-05-25T02:21:08.408Z,90.67
2019-05-25T02:23:37.179Z,90.70
2019-05-25T02:26:05.792Z,90.71
2019-05-25T02:28:34.379Z,90.74
2019-05-25T02:31:02.854Z,90.69
2019-05-25T02:33:31.576Z,90.70
2019-05-25T02:36:00.116Z,90.65
2019-05-25T02:38:28.723Z,90.57
2019-05-25T02:40:57.829Z,90.55
2019-05-25T02:43:26.461Z,90.59
2019-05-25T02:45:55.164Z,90.68
2019-05-25T02:48:23.717Z,90.67
2019-05-25T02:50:53.157Z,90.67
2019-05-25T02:53:21.753Z,90.80
2019-05-25T02:55:50.457Z,90.82
2019-05-25T02:58:19.070Z,90.79
2019-05-25T03:00:47.684Z,90.72
2019-05-25T03:03:16.717Z,90.71
2019-05-25T03:05:46.508Z,90.66
2019-05-25T03:08:15.116Z,90.68
2019-05-25T03:10:44.501Z,90.77
2019-05-25T03:13:13.112Z,90.76
2019-05-25T03:15:41.660Z,90.72
2019-05-25T03:18:10.271Z,90.68
2019-05-25T03:20:38.884Z,90.65
2019-05-25T03:23:07.496Z,90.80
2019-05-25T03:25:48.681Z,90.97
2019-05-25T03:28:06.437Z,91.14
2019-05-25T03:30:37.112Z,91.11
2019-05-25T03:33:06.299Z,91.07
2019-05-25T03:35:34.954Z,91.09
2019-05-25T03:38:03.617Z,91.03
2019-05-25T03:40:32.252Z,91.03
2019-05-25T03:43:00.865Z,91.05
2019-05-25T03:45:29.499Z,91.01
2019-05-25T03:47:58.557Z,90.98
2019-05-25T03:50:27.086Z,91.03
2019-05-25T03:52:55.734Z,90.99
2019-05-25T03:55:24.391Z,90.97
2019-05-25T03:57:52.941Z,90.93
2019-05-25T04:00:33.253Z,90.92
2019-05-25T04:03:01.971Z,90.89
2019-05-25T04:05:30.615Z,90.75
2019-05-25T04:07:59.153Z,90.73
2019-05-25T04:10:27.765Z,90.67
2019-05-25T04:12:56.297Z,90.62
2019-05-25T04:15:25.303Z,90.55
2019-05-25T04:17:53.849Z,90.58
2019-05-25T04:20:22.505Z,90.52
2019-05-25T04:22:51.125Z,90.50
2019-05-25T04:25:19.746Z,90.41
2019-05-25T04:27:49.571Z,90.42
2019-05-25T04:30:18.718Z,90.35
2019-05-25T04:32:47.742Z,90.31
2019-05-25T04:35:16.697Z,90.19
2019-05-25T04:37:45.267Z,90.01
2019-05-25T04:40:13.915Z,89.83
2019-05-25T04:42:42.537Z,89.58
2019-05-25T04:45:11.315Z,89.42
2019-05-25T04:47:39.805Z,89.28
2019-05-25T04:50:09.090Z,88.97
2019-05-25T04:52:40.977Z,88.73
2019-05-25T04:55:08.902Z,88.51
2019-05-25T04:57:37.645Z,88.14
2019-05-25T05:00:08.159Z,87.98
2019-05-25T05:02:36.779Z,87.60
2019-05-25T05:05:06.738Z,87.39
2019-05-25T05:07:35.348Z,87.00
2019-05-25T05:10:08.124Z,86.73
2019-05-25T05:12:36.756Z,86.45
2019-05-25T05:15:07.272Z,85.73
2019-05-25T05:17:35.880Z,86.04
2019-05-25T05:20:07.216Z,85.77
2019-05-25T05:22:35.823Z,85.08
2019-05-25T05:25:05.936Z,84.89
2019-05-25T05:27:34.477Z,84.46
2019-05-25T05:30:04.762Z,84.42
2019-05-25T05:32:33.377Z,84.28
2019-05-25T05:35:02.041Z,84.10
2019-05-25T05:37:32.199Z,83.97
2019-05-25T05:40:02.199Z,83.57
2019-05-25T05:42:33.077Z,83.17
2019-05-25T05:45:03.156Z,82.65
2019-05-25T05:47:34.700Z,82.88
2019-05-25T05:50:04.823Z,82.93
2019-05-25T05:52:38.741Z,82.83
2019-05-25T05:55:10.258Z,83.01
2019-05-25T05:57:38.905Z,83.13
2019-05-25T06:00:10.953Z,83.15
2019-05-25T06:02:39.594Z,83.20
2019-05-25T06:05:08.902Z,82.50
2019-05-25T06:07:37.514Z,82.60
2019-05-25T06:10:07.430Z,81.67
2019-05-25T06:12:36.041Z,81.83
2019-05-25T06:15:06.680Z,81.47
2019-05-25T06:17:35.295Z,81.03
2019-05-25T06:20:07.762Z,80.75
2019-05-25T06:22:36.408Z,80.25
2019-05-25T06:25:07.936Z,77.47
2019-05-25T06:27:37.079Z,77.73
2019-05-25T06:30:09.588Z,77.95
2019-05-25T06:32:38.382Z,76.78
2019-05-25T06:35:07.855Z,77.45
2019-05-25T06:37:36.546Z,75.33
2019-05-25T06:40:10.143Z,75.94
2019-05-25T06:42:38.811Z,75.87
2019-05-25T06:45:09.669Z,75.92
2019-05-25T06:47:38.283Z,75.12
2019-05-25T06:50:07.902Z,75.53
2019-05-25T06:52:36.486Z,76.33
2019-05-25T06:55:07.371Z,75.34
2019-05-25T06:57:43.266Z,73.26
2019-05-25T07:00:08.777Z,74.24
2019-05-25T07:02:38.072Z,73.75
2019-05-25T07:05:09.983Z,73.01
2019-05-25T07:07:38.602Z,72.65
2019-05-25T07:10:09.728Z,73.63
2019-05-25T07:12:38.384Z,72.83
2019-05-25T07:15:10.399Z,69.98
2019-05-25T07:17:38.952Z,67.28
2019-05-25T07:20:08.385Z,69.25
2019-05-25T07:22:37.004Z,70.11
2019-05-25T07:25:07.598Z,67.14
2019-05-25T07:27:36.301Z,69.36
2019-05-25T07:30:09.978Z,67.98
2019-05-25T07:32:38.614Z,68.68
2019-05-25T07:35:08.123Z,68.25
2019-05-25T07:37:39.739Z,67.51
2019-05-25T07:40:09.021Z,66.94
2019-05-25T07:42:37.787Z,68.30
2019-05-25T07:45:08.768Z,68.85
2019-05-25T07:47:37.378Z,68.46
2019-05-25T07:50:09.955Z,68.38
2019-05-25T07:52:38.780Z,68.15
2019-05-25T07:55:08.127Z,67.58
2019-05-25T07:57:37.034Z,67.17
2019-05-25T08:00:07.250Z,67.36
2019-05-25T08:02:35.733Z,66.18
2019-05-25T08:05:06.260Z,67.03
2019-05-25T08:07:34.876Z,66.04
2019-05-25T08:10:03.889Z,65.80
2019-05-25T08:12:32.605Z,65.78
2019-05-25T08:15:01.265Z,65.25
2019-05-25T08:17:30.033Z,64.29
2019-05-25T08:19:58.579Z,62.97
2019-05-25T08:22:27.052Z,63.90
2019-05-25T08:24:55.592Z,64.49
2019-05-25T08:27:24.208Z,63.60
2019-05-25T08:29:52.864Z,63.75
2019-05-25T08:32:21.475Z,59.77
2019-05-25T08:34:49.954Z,61.19
2019-05-25T08:37:18.619Z,62.00
2019-05-25T08:39:47.560Z,59.41
2019-05-25T08:42:16.170Z,59.92
2019-05-25T08:44:44.857Z,61.61
2019-05-25T08:47:13.399Z,61.10
2019-05-25T08:49:41.944Z,60.65
2019-05-25T08:52:10.493Z,60.74
2019-05-25T08:54:39.121Z,61.48
2019-05-25T08:57:07.762Z,62.20
2019-05-25T08:59:36.336Z,61.69
2019-05-25T09:02:04.955Z,62.83
2019-05-25T09:04:33.497Z,64.13
2019-05-25T09:07:02.133Z,63.97
2019-05-25T09:09:30.600Z,63.75
2019-05-25T09:11:59.219Z,62.67
2019-05-25T09:14:27.761Z,62.59
2019-05-25T09:16:56.304Z,61.64
2019-05-25T09:19:24.812Z,59.31
2019-05-25T09:22:02.378Z,60.07
2019-05-25T09:24:23.838Z,57.81
2019-05-25T09:26:52.385Z,59.25
2019-05-25T09:29:21.008Z,60.04
2019-05-25T09:31:49.665Z,60.30
2019-05-25T09:34:18.211Z,60.39
2019-05-25T09:36:46.831Z,56.64
2019-05-25T09:39:15.388Z,59.19
2019-05-25T09:41:43.929Z,57.00
2019-05-25T09:44:12.533Z,56.85
2019-05-25T09:46:41.068Z,57.44
2019-05-25T09:49:09.830Z,57.96
2019-05-25T09:51:38.444Z,57.55
2019-05-25T09:54:06.993Z,57.66
2019-05-25T09:56:35.714Z,56.18
2019-05-25T09:59:17.625Z,57.78
2019-05-25T10:01:34.702Z,57.82
2019-05-25T10:04:03.357Z,57.07
2019-05-25T10:06:31.953Z,58.00
2019-05-25T10:09:00.628Z,58.50
2019-05-25T10:11:29.251Z,60.06
2019-05-25T10:13:57.847Z,58.23
2019-05-25T10:16:26.507Z,58.12
2019-05-25T10:18:55.147Z,55.32
2019-05-25T10:21:23.688Z,53.14
2019-05-25T10:23:52.303Z,55.35
2019-05-25T10:26:23.015Z,55.94
2019-05-25T10:28:51.100Z,56.89
2019-05-25T10:31:19.648Z,58.26
2019-05-25T10:33:49.093Z,54.89
2019-05-25T10:36:17.705Z,56.42
2019-05-25T10:38:46.348Z,55.84
2019-05-25T10:41:14.976Z,55.26
2019-05-25T10:43:43.534Z,55.62
2019-05-25T10:46:12.245Z,54.93
2019-05-25T10:48:40.848Z,53.07
2019-05-25T10:51:09.459Z,52.28
2019-05-25T10:53:38.000Z,51.40
2019-05-25T10:56:06.656Z,52.50
2019-05-25T10:58:35.341Z,53.40
2019-05-25T11:01:03.960Z,51.30
2019-05-25T11:03:32.497Z,51.63
2019-05-25T11:06:01.143Z,49.74
2019-05-25T11:08:30.067Z,49.58
2019-05-25T11:10:58.675Z,50.19
2019-05-25T11:13:28.947Z,50.20
2019-05-25T11:15:57.585Z,48.44
2019-05-25T11:18:26.351Z,49.83
2019-05-25T11:20:54.859Z,49.42
2019-05-25T11:23:23.469Z,47.93
2019-05-25T11:25:52.078Z,46.65
2019-05-25T11:28:21.015Z,46.48
2019-05-25T11:30:49.534Z,47.70
2019-05-25T11:33:18.109Z,44.59
2019-05-25T11:35:46.755Z,45.64
2019-05-25T11:38:15.367Z,44.16
2019-05-25T11:40:43.976Z,43.87
2019-05-25T11:43:12.469Z,43.76
2019-05-25T11:45:41.086Z,45.21
2019-05-25T11:48:09.630Z,45.75
2019-05-25T11:50:38.236Z,44.96
2019-05-25T11:53:06.882Z,46.01
2019-05-25T11:55:35.482Z,45.92
2019-05-25T11:58:04.301Z,42.78
2019-05-25T12:00:33.630Z,42.19
2019-05-25T12:03:02.209Z,42.17
2019-05-25T12:05:30.816Z,42.84
2019-05-25T12:07:59.447Z,42.79
2019-05-25T12:10:28.052Z,44.13
2019-05-25T12:12:56.672Z,45.68
2019-05-25T12:15:25.341Z,45.88
2019-05-25T12:17:53.803Z,45.65
2019-05-25T12:20:22.886Z,45.74
2019-05-25T12:22:51.427Z,44.79
2019-05-25T12:25:20.061Z,46.27
2019-05-25T12:27:49.498Z,46.89
2019-05-25T12:30:20.715Z,46.29
2019-05-25T12:32:49.383Z,45.85
2019-05-25T12:35:19.538Z,44.47
2019-05-25T12:37:48.932Z,45.95
2019-05-25T12:40:18.070Z,46.72
2019-05-25T12:42:46.712Z,45.33
2019-05-25T12:45:15.759Z,44.39
2019-05-25T12:47:44.386Z,42.29
2019-05-25T12:50:13.492Z,43.33
2019-05-25T12:52:42.687Z,42.97
2019-05-25T12:55:11.402Z,42.79
2019-05-25T12:57:40.005Z,41.71
2019-05-25T13:00:16.182Z,42.60
2019-05-25T13:02:39.927Z,43.66
2019-05-25T13:05:09.196Z,44.70
2019-05-25T13:07:37.804Z,44.88
2019-05-25T13:10:07.802Z,43.51
2019-05-25T13:12:36.411Z,43.40
2019-05-25T13:15:07.023Z,42.52
2019-05-25T13:17:35.550Z,42.91
2019-05-25T13:20:05.963Z,44.29
2019-05-25T13:22:34.438Z,44.17
2019-05-25T13:25:03.053Z,43.30
2019-05-25T13:27:31.729Z,43.79
2019-05-25T13:30:03.024Z,43.66
2019-05-25T13:32:30.702Z,43.99
2019-05-25T13:34:59.182Z,45.04
2019-05-25T13:37:27.795Z,45.65
2019-05-25T13:39:56.298Z,44.66
2019-05-25T13:42:24.819Z,44.88
2019-05-25T13:44:53.431Z,46.34
2019-05-25T13:47:22.097Z,46.04
2019-05-25T13:49:50.670Z,43.45
2019-05-25T13:52:19.260Z,43.84
2019-05-25T13:54:47.806Z,45.51
2019-05-25T13:57:16.386Z,45.12
2019-05-25T13:59:45.129Z,44.39
2019-05-25T14:02:13.681Z,44.59
2019-05-25T14:04:42.143Z,43.95
2019-05-25T14:07:10.761Z,44.56
2019-05-25T14:09:39.436Z,45.41
2019-05-25T14:12:07.991Z,45.06
2019-05-25T14:14:36.458Z,44.03
2019-05-25T14:17:05.169Z,44.21
2019-05-25T14:19:33.707Z,45.13
2019-05-25T14:22:02.345Z,44.66
2019-05-25T14:24:30.872Z,43.65
2019-05-25T14:26:59.533Z,42.57
2019-05-25T14:29:28.073Z,44.53
2019-05-25T14:31:56.779Z,44.63
2019-05-25T14:34:25.514Z,44.15
2019-05-25T14:36:53.986Z,45.19
2019-05-25T14:39:22.530Z,44.30
2019-05-25T14:41:51.087Z,44.92
2019-05-25T14:44:19.825Z,45.79
2019-05-25T14:46:48.474Z,44.21
2019-05-25T14:49:17.620Z,44.39
2019-05-25T14:51:46.387Z,44.19
2019-05-25T14:54:14.860Z,42.95
2019-05-25T14:56:43.697Z,44.76
2019-05-25T14:59:12.341Z,45.41
2019-05-25T15:01:40.878Z,45.58
2019-05-25T15:04:09.490Z,45.99
2019-05-25T15:06:38.096Z,45.79
2019-05-25T15:09:07.969Z,47.10
2019-05-25T15:11:36.535Z,46.53
2019-05-25T15:14:05.143Z,46.29
2019-05-25T15:16:33.784Z,45.51
2019-05-25T15:19:02.409Z,46.67
2019-05-25T15:21:31.100Z,46.57
2019-05-25T15:23:59.680Z,46.04
2019-05-25T15:26:28.220Z,46.30
2019-05-25T15:28:56.875Z,46.19
2019-05-25T15:31:25.494Z,45.08
2019-05-25T15:33:54.189Z,45.54
2019-05-25T15:36:22.663Z,45.28
2019-05-25T15:38:52.664Z,45.35
2019-05-25T15:41:21.139Z,45.04
2019-05-25T15:43:49.711Z,46.16
2019-05-25T15:46:18.243Z,47.17
2019-05-25T15:48:46.887Z,46.30
2019-05-25T15:51:15.534Z,47.27
2019-05-25T15:53:44.150Z,47.10
2019-05-25T15:56:12.615Z,46.31
2019-05-25T15:58:41.161Z,47.55
2019-05-25T16:01:09.797Z,48.53
2019-05-25T16:03:38.384Z,48.20
2019-05-25T16:06:06.931Z,46.90
2019-05-25T16:08:37.124Z,47.22
2019-05-25T16:11:05.735Z,48.10
2019-05-25T16:13:34.276Z,48.07
2019-05-25T16:16:02.939Z,47.70
2019-05-25T16:18:31.547Z,47.84
2019-05-25T16:21:00.021Z,48.21
2019-05-25T16:23:28.560Z,48.99
2019-05-25T16:25:57.253Z,47.84
2019-05-25T16:28:25.800Z,48.21
2019-05-25T16:30:54.515Z,48.11
2019-05-25T16:33:23.124Z,49.33
2019-05-25T16:35:52.258Z,49.84
2019-05-25T16:38:21.300Z,49.66
2019-05-25T16:40:49.904Z,50.71
2019-05-25T16:43:18.639Z,50.98
2019-05-25T16:45:47.236Z,50.59
2019-05-25T16:48:15.852Z,50.76
2019-05-25T16:50:44.332Z,51.33
2019-05-25T16:53:12.966Z,51.98
2019-05-25T16:55:41.583Z,52.28
2019-05-25T16:58:10.191Z,53.34
2019-05-25T17:00:38.842Z,53.48
2019-05-25T17:03:07.712Z,54.06
2019-05-25T17:05:36.324Z,54.67
2019-05-25T17:08:04.981Z,55.38
2019-05-25T17:10:33.526Z,55.52
2019-05-25T17:13:03.602Z,55.69
2019-05-25T17:15:32.868Z,55.87
2019-05-25T17:18:04.668Z,56.07
2019-05-25T17:20:31.843Z,56.88
2019-05-25T17:23:00.556Z,58.29
2019-05-25T17:25:29.217Z,58.38
2019-05-25T17:27:57.822Z,58.59
2019-05-25T17:30:45.361Z,58.66
2019-05-25T17:33:14.426Z,59.25
2019-05-25T17:35:44.338Z,59.70
2019-05-25T17:38:12.990Z,60.09
2019-05-25T17:40:41.651Z,60.41
2019-05-25T17:43:10.288Z,60.60
2019-05-25T17:45:38.998Z,61.11
2019-05-25T17:48:07.617Z,61.83
2019-05-25T17:50:36.242Z,62.39
2019-05-25T17:53:05.118Z,63.05
2019-05-25T17:55:33.731Z,63.44
2019-05-25T17:58:02.280Z,63.63
2019-05-25T18:00:42.199Z,63.92
2019-05-25T18:03:10.867Z,64.13
2019-05-25T18:05:39.712Z,64.63
2019-05-25T18:08:09.120Z,65.12
2019-05-25T18:10:52.150Z,65.82
2019-05-25T18:13:08.367Z,66.42
2019-05-25T18:15:36.975Z,66.11
2019-05-25T18:18:07.361Z,65.53
2019-05-25T18:20:36.277Z,65.48
2019-05-25T18:23:05.290Z,65.22
2019-05-25T18:25:33.827Z,65.30
2019-05-25T18:28:02.448Z,65.50
2019-05-25T18:30:31.267Z,65.69
2019-05-25T18:33:00.089Z,65.93
2019-05-25T18:35:28.702Z,66.04
2019-05-25T18:37:57.315Z,66.33
2019-05-25T18:40:26.226Z,66.54
2019-05-25T18:42:54.800Z,67.12
2019-05-25T18:45:24.765Z,67.50
2019-05-25T18:47:53.276Z,67.89
2019-05-25T18:50:22.318Z,68.89
2019-05-25T18:52:50.814Z,69.24
2019-05-25T18:55:19.828Z,69.60
2019-05-25T18:57:48.436Z,69.98
2019-05-25T19:00:17.661Z,70.33
2019-05-25T19:02:46.221Z,70.72
2019-05-25T19:05:15.674Z,71.11
2019-05-25T19:07:44.266Z,71.46
2019-05-25T19:10:13.317Z,71.56
2019-05-25T19:12:41.977Z,71.96
2019-05-25T19:15:11.321Z,72.45
2019-05-25T19:17:40.000Z,72.42
2019-05-25T19:20:09.570Z,72.54
2019-05-25T19:22:38.247Z,72.83
2019-05-25T19:25:09.536Z,72.97
2019-05-25T19:27:38.144Z,72.97
2019-05-25T19:30:08.652Z,73.36
2019-05-25T19:32:37.204Z,73.61
2019-05-25T19:35:06.695Z,73.69
2019-05-25T19:37:35.156Z,74.03
2019-05-25T19:40:08.999Z,74.41
2019-05-25T19:42:36.035Z,74.49
2019-05-25T19:45:07.697Z,74.58
2019-05-25T19:47:36.308Z,74.73
2019-05-25T19:50:06.993Z,74.71
2019-05-25T19:52:38.563Z,75.06
2019-05-25T19:55:07.869Z,75.42
2019-05-25T19:57:37.879Z,75.44
2019-05-25T20:00:08.738Z,75.60
2019-05-25T20:02:37.756Z,75.92
2019-05-25T20:05:16.464Z,76.16
2019-05-25T20:07:40.264Z,76.28
2019-05-25T20:10:09.989Z,76.33
2019-05-25T20:12:38.870Z,76.82
2019-05-25T20:15:08.688Z,76.85
2019-05-25T20:17:37.959Z,76.91
2019-05-25T20:20:09.295Z,77.26
2019-05-25T20:22:37.813Z,77.40
2019-05-25T20:25:07.169Z,77.69
2019-05-25T20:27:37.140Z,77.79
2019-05-25T20:30:07.787Z,77.77
2019-05-25T20:32:36.400Z,77.86
2019-05-25T20:35:06.325Z,77.88
2019-05-25T20:37:34.949Z,78.03
2019-05-25T20:40:04.559Z,78.05
2019-05-25T20:42:33.193Z,78.01
2019-05-25T20:45:01.767Z,78.12
2019-05-25T20:47:30.652Z,78.04
2019-05-25T20:50:02.224Z,78.14
2019-05-25T20:52:30.909Z,78.20
2019-05-25T20:54:59.444Z,78.09
2019-05-25T20:57:28.005Z,78.18
2019-05-25T20:59:56.628Z,78.46
2019-05-25T21:02:25.858Z,78.59
2019-05-25T21:04:54.429Z,78.67
2019-05-25T21:07:22.997Z,78.99
2019-05-25T21:09:51.611Z,79.12
2019-05-25T21:12:20.210Z,79.26
2019-05-25T21:14:48.830Z,79.48
2019-05-25T21:17:17.464Z,79.64
2019-05-25T21:19:46.265Z,79.78
2019-05-25T21:22:14.767Z,80.01
2019-05-25T21:24:43.338Z,80.23
2019-05-25T21:27:13.388Z,80.22
2019-05-25T21:29:42.030Z,80.38
2019-05-25T21:32:10.686Z,80.33
2019-05-25T21:34:39.324Z,80.29
2019-05-25T21:37:09.451Z,79.96
2019-05-25T21:39:38.084Z,79.69
2019-05-25T21:42:06.709Z,79.53
2019-05-25T21:44:35.373Z,79.49
2019-05-25T21:47:04.004Z,79.66
2019-05-25T21:49:32.688Z,79.91
2019-05-25T21:52:01.305Z,80.08
2019-05-25T21:54:29.926Z,80.04
2019-05-25T21:56:58.546Z,80.11
2019-05-25T21:59:27.151Z,80.25
2019-05-25T22:01:55.777Z,80.50
2019-05-25T22:04:24.396Z,80.72
2019-05-25T22:06:53.031Z,81.12
2019-05-25T22:09:21.586Z,81.01
2019-05-25T22:11:50.206Z,80.90
2019-05-25T22:14:18.826Z,80.62
2019-05-25T22:16:47.489Z,80.49
2019-05-25T22:19:16.122Z,80.54
2019-05-25T22:21:46.445Z,80.93
2019-05-25T22:24:14.875Z,80.97
2019-05-25T22:26:43.357Z,81.10
2019-05-25T22:29:12.176Z,80.89
2019-05-25T22:31:40.787Z,81.06
2019-05-25T22:34:09.405Z,81.09
2019-05-25T22:36:40.955Z,81.11
2019-05-25T22:39:08.938Z,81.14
2019-05-25T22:41:38.733Z,81.12
2019-05-25T22:44:07.379Z,81.14
2019-05-25T22:46:35.923Z,81.06
2019-05-25T22:49:04.880Z,81.04
2019-05-25T22:51:33.517Z,81.03
2019-05-25T22:54:02.159Z,81.08
2019-05-25T22:56:30.765Z,81.12
2019-05-25T22:58:59.374Z,81.18
2019-05-25T23:01:27.921Z,81.27
2019-05-25T23:03:56.468Z,81.39
2019-05-25T23:06:26.587Z,81.73
2019-05-25T23:08:55.215Z,81.94
2019-05-25T23:11:23.861Z,82.10
2019-05-25T23:13:52.443Z,82.29
2019-05-25T23:16:21.086Z,82.44
2019-05-25T23:18:49.635Z,82.66
2019-05-25T23:21:18.302Z,82.89
2019-05-25T23:23:46.852Z,82.76
2019-05-25T23:26:15.631Z,82.76
2019-05-25T23:28:44.186Z,82.66
2019-05-25T23:31:14.319Z,82.70
2019-05-25T23:33:42.831Z,82.77
2019-05-25T23:36:11.477Z,82.98
2019-05-25T23:38:40.062Z,82.95
2019-05-25T23:41:08.615Z,82.96
2019-05-25T23:43:37.296Z,83.09
2019-05-25T23:46:06.163Z,83.08
2019-05-25T23:48:34.781Z,83.02
2019-05-25T23:51:03.388Z,82.96
2019-05-25T23:53:31.995Z,82.96
2019-05-25T23:56:02.123Z,83.18
2019-05-25T23:58:30.753Z,83.32
